Flight Track Log - Related Links

Times and Time Zones

All times are in EDT time to prevent confusion due to time zone crossing. See the QFA723 flight status page for this flight to view local times or setup timezone preferences in your user account.

Time Position Orientation Groundspeed Altitude Reporting Facility
EDT Latitude Longitude Course Direction KTS MPH feet Rate Location/Type
Wed 08:40:22 PM -34.9460 138.5360 270° West 115 132  Level FlightAware ADS-B
Wed 08:40:53 PM -34.9600 138.5160 229° Southwest 159 183 600 1,680 Climbing FlightAware ADS-B
Wed 08:41:12 PM -34.9690 138.5020 232° Southwest 155 178 1,400 2,000 Climbing FlightAware ADS-B
Wed 08:41:32 PM -34.9800 138.4870 228° Southwest 183 211 1,900 2,267 Climbing FlightAware ADS-B
Wed 08:41:57 PM -34.9950 138.4650 230° Southwest 201 231 3,100 3,000 Climbing FlightAware ADS-B
Wed 08:42:12 PM -35.0030 138.4520 233° Southwest 197 227 3,900 2,400 Climbing FlightAware ADS-B
Wed 08:42:22 PM -35.0060 138.4400 253° West 213 245 4,100 1,714 Climbing FlightAware ADS-B
Wed 08:42:47 PM -34.9950 138.4080 293° West 251 289 4,900 1,867 Climbing FlightAware ADS-B
Wed 08:43:07 PM -34.9790 138.3870 313° West 269 310 5,500 1,500 Climbing FlightAware ADS-B
Wed 08:43:27 PM -34.9600 138.3630 314° West 299 344 5,900 1,200 Climbing FlightAware ADS-B
Wed 08:43:37 PM -34.9500 138.3490 311° West 312 359 6,100 2,400 Climbing FlightAware ADS-B
Wed 08:44:02 PM -34.9250 138.3150 312° West 330 380 7,300 3,000 Climbing FlightAware ADS-B
Wed 08:44:21 PM -34.9040 138.2880 313° West 336 387 8,300 3,086 Climbing FlightAware ADS-B
Wed 08:44:37 PM -34.8880 138.2670 313° West 341 392 9,100 2,941 Climbing FlightAware ADS-B
Wed 08:45:12 PM -34.8510 138.2180 313° West 342 394 10,800 2,829 Climbing FlightAware ADS-B
Wed 08:45:47 PM -34.8130 138.1670 312° West 359 413 12,400 2,657 Climbing FlightAware ADS-B
Wed 08:46:22 PM -34.7720 138.1120 312° West 368 423 13,900 2,743 Climbing FlightAware ADS-B
Wed 08:46:57 PM -34.7290 138.0570 314° West 376 433 15,600 2,829 Climbing FlightAware ADS-B
Wed 08:47:32 PM -34.6889 138.0034 314° West 377 434 17,200 2,571 Climbing Aus ATC (RADAR)
Wed 08:47:32 PM -34.6880 138.0020 314° West 382 440 17,100 1,886 Descending FlightAware ADS-B
Wed 08:48:07 PM -34.6470 137.9480 313° West 388 447 18,300 2,160 Climbing FlightAware ADS-B
Wed 08:48:47 PM -34.5950 137.8810 313° West 403 464 19,800 2,250 Climbing FlightAware ADS-B
Wed 08:49:11 PM -34.5550 137.8520 329° Northwest 421 484 20,700 2,182 Climbing FlightAware ADS-B
Wed 08:49:42 PM -34.4930 137.8350 347° North 442 509 21,800 1,818 Climbing FlightAware ADS-B
Wed 08:50:17 PM -34.4200 137.8190 350° North 456 525 22,700 1,521 Climbing FlightAware ADS-B
Wed 08:50:53 PM -34.3470 137.8030 350° North 459 528 23,600 1,606 Climbing FlightAware ADS-B
Wed 08:51:28 PM -34.2680 137.7860 350° North 473 544 24,600 1,629 Climbing FlightAware ADS-B
Wed 08:52:03 PM -34.1960 137.7700 350° North 471 542 25,500 1,600 Climbing FlightAware ADS-B
Wed 08:52:43 PM -34.1040 137.7500 350° North 487 560 26,600 1,457 Climbing FlightAware ADS-B
Wed 08:53:13 PM -34.0410 137.7360 350° North 492 566 27,200 1,292 Climbing FlightAware ADS-B
Wed 08:53:48 PM -33.9590 137.7180 350° North 490 564 28,000 1,268 Climbing FlightAware ADS-B
Wed 08:54:24 PM -33.8800 137.7010 350° North 494 568 28,700 1,315 Climbing FlightAware ADS-B
Wed 08:55:01 PM -33.8000 137.6840 350° North 493 567 29,600 1,701 Climbing FlightAware ADS-B
Wed 08:55:31 PM -33.7260 137.6670 349° North 487 560 30,600 1,818 Climbing FlightAware ADS-B
Wed 08:56:07 PM -33.6470 137.6500 350° North 493 567 31,600 1,500 Climbing FlightAware ADS-B
Wed 08:56:43 PM -33.5640 137.6320 350° North 490 564 32,400 1,425 Climbing FlightAware ADS-B
Wed 08:57:27 PM -33.4650 137.6110 350° North 486 559 33,500 1,367 Climbing FlightAware ADS-B
Wed 08:58:02 PM -33.3960 137.5960 350° North 476 548 34,200 1,343 Climbing FlightAware ADS-B
Wed 08:58:34 PM -33.3200 137.5800 350° North 470 541 35,000 846 Climbing FlightAware ADS-B
Wed 08:59:20 PM -33.2200 137.5590 350° North 476 548 35,300 545 Climbing FlightAware ADS-B
Wed 08:59:51 PM -33.1470 137.5430 350° North 492 566 35,700 600 Climbing FlightAware ADS-B
Wed 09:00:30 PM -33.0650 137.5250 350° North 493 567 36,000 250 Climbing FlightAware ADS-B
Wed 09:01:03 PM -33.0070 137.5110 349° North 493 567 36,000  Level FlightAware ADS-B
Wed 09:01:39 PM -32.9380 137.4950 349° North 493 567 36,000  Level FlightAware ADS-B
Wed 09:01:46 PM -32.8980 137.4630 326° Northwest 728 838 36,000  Level FlightAware ADS-B
Wed 09:02:01 PM -32.8680 137.4520 343° North 485 558 36,000  Level FlightAware ADS-B
Wed 09:02:34 PM -32.7930 137.4240 343° North 484 557 36,000  Level FlightAware ADS-B
Wed 09:03:09 PM -32.7210 137.3960 343° North 481 554 36,000 486 Level FlightAware ADS-B
Wed 09:03:11 PM -32.7175 137.3954 343° North 483 556 36,300 563 Climbing Aus ATC (RADAR)
Wed 09:03:41 PM -32.6548 137.3703 343° North 478 550 36,300 -429 Level Aus ATC (RADAR)
Wed 09:03:53 PM -32.6530 137.3700 343° North 478 550 36,000  Descending FlightAware ADS-B
Wed 09:04:26 PM -32.5597 137.3334 343° North 477 549 36,300  Climbing Aus ATC (RADAR)
Wed 09:04:33 PM -32.5810 137.3430 343° North 478 550 36,000 -419 Descending FlightAware ADS-B
Wed 09:05:09 PM -32.5170 137.3180 342° North 478 550 36,000  Level FlightAware ADS-B
Wed 09:05:45 PM -32.4530 137.2930 342° North 478 550 36,000  Level FlightAware ADS-B
Wed 09:06:21 PM -32.3880 137.2680 342° North 478 550 36,000  Level FlightAware ADS-B
Wed 09:06:58 PM -32.3220 137.2430 342° North 478 550 36,000  Level FlightAware ADS-B
Wed 09:07:34 PM -32.2580 137.2180 342° North 478 550 36,000  Level FlightAware ADS-B
Wed 09:08:10 PM -32.1930 137.1930 342° North 478 550 36,000 273 Level FlightAware ADS-B
Wed 09:08:40 PM -32.0238 137.1330 342° North 476 548 36,300  Climbing Aus ATC (RADAR)
Wed 09:08:46 PM -32.1290 137.1690 342° North 478 550 36,000 -429 Descending FlightAware ADS-B
Wed 09:09:22 PM -32.0650 137.1440 342° North 478 550 36,000  Level FlightAware ADS-B
Wed 09:09:58 PM -32.0000 137.1190 342° North 478 550 36,000  Level FlightAware ADS-B
Wed 09:10:34 PM -31.9360 137.0950 342° North 478 550 36,000  Level FlightAware ADS-B
Wed 09:11:10 PM -31.8710 137.0700 342° North 478 550 36,000  Level FlightAware ADS-B
Wed 09:11:46 PM -31.8070 137.0460 342° North 478 550 36,000  Level FlightAware ADS-B
Wed 09:12:22 PM -31.7430 137.0210 342° North 478 550 36,000  Level FlightAware ADS-B
Wed 09:12:59 PM -31.6770 136.9960 342° North 478 550 36,000  Level FlightAware ADS-B
Wed 09:13:36 PM -31.6100 136.9700 342° North 478 550 36,000 142 Level FlightAware ADS-B
Wed 09:15:06 PM -31.2309 136.8412 342° North 471 542 36,300 129 Climbing Aus ATC (RADAR)
Wed 09:15:55 PM -31.1175 136.7988 342° North 469 540 36,300 -9 Level Aus ATC (RADAR)
Wed 09:20:56 PM -30.4924 136.5520 341° North 36,000 -9 Descending Aus ATC (Calculated)
Wed 09:22:00 PM -30.3810 136.5084 341° North  Level FlightAware Approximate
Wed 09:23:00 PM -30.2766 136.4676 341° North  Level FlightAware Approximate
Wed 09:23:46 PM -30.1405 136.4146 341° North 36,000  Level Aus ATC (Calculated)
Wed 09:24:00 PM -30.1722 136.4269 341° North  Level FlightAware Approximate
Wed 09:25:00 PM -30.0117 136.3645 341° North  Level FlightAware Approximate
Wed 09:25:54 PM -29.8576 136.3048 341° North 36,000  Level Aus ATC (Calculated)
Wed 09:26:00 PM -29.9072 136.3240 341° North  Level FlightAware Approximate
Wed 09:27:00 PM -29.7427 136.2604 341° North  Level FlightAware Approximate
Wed 09:27:34 PM -29.6408 136.2230 341° North 36,000  Level Aus ATC (Calculated)
Wed 09:28:59 PM -29.4442 136.1491 341° North 36,000  Level Aus ATC (Calculated)
Wed 09:29:00 PM -29.7920 136.2754 163° South  Level FlightAware Approximate
Wed 09:29:54 PM -29.3849 136.1268 341° North 36,000  Level Aus ATC (Calculated)
Wed 09:30:00 PM -29.5509 136.1885 162° South  Level FlightAware Approximate
Wed 09:31:00 PM -29.5002 136.1696 162° South  Level FlightAware Approximate
Wed 09:31:28 PM -29.2123 136.0623 341° North 36,000  Level Aus ATC (Calculated)
Wed 09:32:00 PM -29.6051 136.2085 162° South  Level FlightAware Approximate
Wed 09:33:00 PM -29.3730 136.1219 162° South  Level FlightAware Approximate
Wed 09:33:48 PM -28.8993 135.9459 341° North 36,000  Level Aus ATC (Calculated)
Wed 09:34:00 PM -29.4778 136.1609 162° South  Level FlightAware Approximate
Wed 09:35:00 PM -28.7753 135.8937 342° North  Level Estimated
Wed 09:36:00 PM -28.6706 135.8545 342° North  Level FlightAware Approximate
Wed 09:36:23 PM -28.5602 135.8205 341° North 36,000  Level Aus ATC (Calculated)
Wed 09:37:00 PM -28.5659 135.8153 342° North  Level FlightAware Approximate
Wed 09:38:00 PM -28.3912 135.7563 342° North  Level FlightAware Approximate
Wed 09:38:23 PM -28.3057 135.7270 340° North 36,000  Level Aus ATC (Calculated)
Wed 09:40:00 PM -28.1369 135.6625 341° North  Level FlightAware Approximate
Wed 09:41:00 PM -28.0325 135.6227 341° North  Level FlightAware Approximate
Wed 09:42:00 PM -27.9280 135.5829 341° North  Level FlightAware Approximate
Wed 09:43:00 PM -27.8236 135.5433 341° North  Level FlightAware Approximate
Wed 09:43:22 PM -27.7330 135.5183 339° North 36,000  Level Aus ATC (Calculated)
Wed 09:45:00 PM -27.5648 135.4459 339° North  Level FlightAware Approximate
Wed 09:45:07 PM -27.5419 135.4492 338° Northwest 36,000  Level Aus ATC (Calculated)
Wed 09:47:00 PM -27.7249 135.3386 208° Southwest  Level FlightAware Approximate
Wed 09:48:00 PM -27.6278 135.3974 28° Northeast  Level FlightAware Approximate
Wed 09:49:00 PM -27.5306 135.4560 28° Northeast  Level FlightAware Approximate
Wed 09:49:44 PM -27.0240 135.2130 208° Southwest 439 505 36,000  Level FlightAware ADS-B
Wed 09:50:00 PM -27.6278 135.3974 208° Southwest  Level FlightAware Approximate
Wed 09:50:02 PM -27.0022 135.2047 336° Northwest 36,000  Level Aus ATC (Calculated)
Wed 09:50:14 PM -26.9680 135.1880 338° Northwest 439 505 36,000  Level FlightAware ADS-B
Wed 09:50:42 PM -26.9250 135.1700 339° North 36,000  Level Aus ATC (Calculated)
Wed 09:50:58 PM -26.8840 135.1520 338° Northwest 436 502 36,000  Level FlightAware ADS-B
Wed 09:51:36 PM -26.8110 135.1210 339° North 435 501 36,000  Level FlightAware ADS-B
Wed 09:52:08 PM -26.7510 135.0960 340° North 432 497 36,000  Level FlightAware ADS-B
Wed 09:52:44 PM -26.6860 135.0690 340° North 431 496 36,000  Level FlightAware ADS-B
Wed 09:53:22 PM -26.6130 135.0380 339° North 427 491 36,000  Level FlightAware ADS-B
Wed 09:53:54 PM -26.5570 135.0140 339° North 426 490 36,000  Level FlightAware ADS-B
Wed 09:54:30 PM -26.4900 134.9860 339° North 425 489 36,000  Level FlightAware ADS-B
Wed 09:55:08 PM -26.4190 134.9560 339° North 424 488 36,000  Level FlightAware ADS-B
Wed 09:55:36 PM -26.3953 134.9462 339° North 27,900  Descending Aus ATC (Calculated)
Wed 09:55:40 PM -26.3600 134.9310 339° North 426 490 36,000 12,150 Climbing FlightAware ADS-B
Wed 09:56:16 PM -26.2940 134.9040 339° North 428 493 36,000  Level FlightAware ADS-B
Wed 09:56:52 PM -26.2260 134.8750 339° North 428 493 36,000  Level FlightAware ADS-B
Wed 09:57:04 PM -26.2776 134.8968 340° North 27,900  Descending Aus ATC (Calculated)
Wed 09:57:28 PM -26.1580 134.8470 340° North 427 491 36,000 9,000 Climbing FlightAware ADS-B
Wed 09:57:58 PM -26.1020 134.8230 340° North 427 491 36,000  Level FlightAware ADS-B
Wed 09:58:16 PM -26.1009 134.8228 340° North 27,900  Descending Aus ATC (Calculated)
Wed 09:58:36 PM -26.0310 134.7940 340° North 428 493 36,000 8,679 Climbing FlightAware ADS-B
Wed 09:59:07 PM -26.0420 134.7981 339° North 27,900  Descending Aus ATC (Calculated)
Wed 09:59:12 PM -25.9650 134.7660 339° North 428 493 36,000 13,135 Climbing FlightAware ADS-B
Wed 09:59:44 PM -25.9090 134.7430 340° North 427 491 36,000  Level FlightAware ADS-B
Wed 10:00:20 PM -25.8400 134.7140 340° North 426 490 36,000  Level FlightAware ADS-B
Wed 10:00:36 PM -25.8653 134.7244 340° North 27,900  Descending Aus ATC (Calculated)
Wed 10:00:56 PM -25.7720 134.6860 340° North 427 491 36,000 9,346 Climbing FlightAware ADS-B
Wed 10:01:28 PM -25.7120 134.6610 340° North 427 491 36,000  Level FlightAware ADS-B
Wed 10:02:04 PM -25.6460 134.6330 339° North 427 491 36,000 -81 Level FlightAware ADS-B
Wed 10:02:42 PM -25.5760 134.6050 340° North 424 488 35,900 -1,135 Descending FlightAware ADS-B
Wed 10:03:18 PM -25.5100 134.5770 339° North 417 480 34,600 -2,382 Descending FlightAware ADS-B
Wed 10:03:35 PM -25.5117 134.5777 340° North 27,900 -2,625 Descending Aus ATC (Calculated)
Wed 10:03:50 PM -25.4540 134.5540 340° North 421 484 33,200 4,471 Climbing FlightAware ADS-B
Wed 10:04:26 PM -25.3860 134.5250 340° North 421 484 31,700 -2,289 Descending FlightAware ADS-B
Wed 10:05:06 PM -25.3130 134.4960 340° North 408 470 30,300 -1,920 Descending FlightAware ADS-B
Wed 10:05:20 PM -25.3349 134.5046 340° North 27,900 -1,714 Descending Aus ATC (Calculated)
Wed 10:05:41 PM -25.2570 134.4730 340° North 398 458 29,300 103 Climbing FlightAware ADS-B
Wed 10:06:18 PM -25.1910 134.4450 340° North 387 445 28,000 -1,973 Descending FlightAware ADS-B
Wed 10:06:35 PM -25.2169 134.4560 339° North 27,900 -1,833 Descending Aus ATC (Calculated)
Wed 10:06:54 PM -25.1300 134.4200 340° North 392 451 26,900 -2,377 Descending FlightAware ADS-B
Wed 10:07:28 PM -25.0740 134.3960 340° North 390 449 25,800 -1,886 Descending FlightAware ADS-B
Wed 10:07:50 PM -25.0400 134.3833 339° North 27,900 -1,833 Climbing Aus ATC (Calculated)
Wed 10:08:04 PM -25.0110 134.3710 340° North 387 445 24,700 -5,160 Descending FlightAware ADS-B
Wed 10:08:40 PM -24.9520 134.3470 340° North 388 447 23,600 -1,941 Descending FlightAware ADS-B
Wed 10:09:12 PM -24.8960 134.3250 340° North 388 447 22,500 -1,881 Descending FlightAware ADS-B
Wed 10:09:20 PM -24.8842 134.3197 340° North 2,400 -1,714 Descending Aus ATC (Calculated)
Wed 10:09:47 PM -24.8390 134.3020 340° North 381 438 21,500 17,323 Climbing FlightAware ADS-B
Wed 10:10:22 PM -24.7790 134.2770 339° North 380 437 20,300 -1,890 Descending FlightAware ADS-B
Wed 10:10:50 PM -24.8063 134.2879 340° North 2,400 -1,737 Descending Aus ATC (Calculated)
Wed 10:11:00 PM -24.7180 134.2520 339° North 377 434 19,200 22,571 Climbing FlightAware ADS-B
Wed 10:11:32 PM -24.6660 134.2310 340° North 374 430 18,200 -1,826 Descending FlightAware ADS-B
Wed 10:12:09 PM -24.6060 134.2060 339° North 371 427 17,100 -1,800 Descending FlightAware ADS-B
Wed 10:12:40 PM -24.6504 134.2244 340° North 2,400 -1,818 Descending Aus ATC (Calculated)
Wed 10:12:42 PM -24.5510 134.1840 340° North 366 421 16,100 21,167 Climbing FlightAware ADS-B
Wed 10:13:16 PM -24.4980 134.1630 340° North 362 417 15,100 -1,886 Descending FlightAware ADS-B
Wed 10:13:52 PM -24.4440 134.1340 340° North 359 413 13,900 -2,000 Descending FlightAware ADS-B
Wed 10:14:28 PM -24.3920 134.1030 331° Northwest 342 394 12,700 -1,833 Descending FlightAware ADS-B
Wed 10:14:49 PM -24.4166 134.1295 326° Northwest 2,400 -1,667 Descending Aus ATC (Calculated)
Wed 10:15:04 PM -24.3440 134.0750 332° Northwest 333 383 11,700 10,667 Climbing FlightAware ADS-B
Wed 10:15:34 PM -24.3010 134.0490 332° Northwest 338 389 10,400 -2,217 Descending FlightAware ADS-B
Wed 10:15:34 PM -24.3386 134.0980 317° Northwest 2,400 -1,500 Descending Aus ATC (Calculated)
Wed 10:15:50 PM -24.2790 134.0360 332° Northwest 331 381 10,000 13,059 Climbing FlightAware ADS-B
Wed 10:16:08 PM -24.2560 134.0230 332° Northwest 317 365 9,800 -474 Descending FlightAware ADS-B
Wed 10:16:28 PM -24.2320 134.0080 330° Northwest 303 349 9,700 -600 Descending FlightAware ADS-B
Wed 10:16:48 PM -24.2060 133.9930 332° Northwest 302 348 9,400 -1,200 Descending FlightAware ADS-B
Wed 10:17:08 PM -24.1810 133.9790 333° Northwest 301 346 8,900 -1,364 Descending FlightAware ADS-B
Wed 10:17:32 PM -24.1520 133.9620 332° Northwest 297 342 8,400 -1,256 Descending FlightAware ADS-B
Wed 10:17:51 PM -24.1290 133.9490 333° Northwest 294 338 8,000 -1,350 Descending FlightAware ADS-B
Wed 10:18:12 PM -24.1040 133.9340 331° Northwest 292 336 7,500 -1,395 Descending FlightAware ADS-B
Wed 10:18:34 PM -24.0780 133.9190 332° Northwest 289 333 7,000 -1,143 Descending FlightAware ADS-B
Wed 10:18:34 PM -24.1047 134.0036 299° West 2,400 -900 Descending Aus ATC (Calculated)
Wed 10:18:54 PM -24.0550 133.9060 332° Northwest 283 326 6,700 6,150 Climbing FlightAware ADS-B
Wed 10:19:14 PM -24.0300 133.8950 338° Northwest 273 314 6,500 -682 Descending FlightAware ADS-B
Wed 10:19:26 PM -24.0267 133.9722 287° West 2,400 -750 Descending Aus ATC (Calculated)
Wed 10:19:38 PM -24.0020 133.8830 339° North 263 303 6,200 6,750 Climbing FlightAware ADS-B
Wed 10:19:58 PM -23.9800 133.8740 339° North 256 295 6,000 -450 Descending FlightAware ADS-B
Wed 10:20:18 PM -23.9580 133.8650 340° North 248 285 5,900 -450 Descending FlightAware ADS-B
Wed 10:20:38 PM -23.9380 133.8570 340° North 236 272 5,700 -833 Descending FlightAware ADS-B
Wed 10:20:54 PM -23.9220 133.8510 341° North 233 268 5,400 -1,167 Descending FlightAware ADS-B
Wed 10:21:14 PM -23.9000 133.8420 339° North 227 261 5,000 -1,200 Descending FlightAware ADS-B
Wed 10:21:34 PM -23.8820 133.8350 340° North 224 258 4,600 -1,029 Descending FlightAware ADS-B
Wed 10:21:34 PM -23.7927 133.8782 211° Southwest 2,400 -800 Descending Aus ATC (Calculated)
Wed 10:21:34 PM -23.7927 133.8782 211° Southwest 2,400 8,000 Level Aus ATC (Calculated)
Wed 10:21:49 PM -23.8670 133.8290 340° North 225 259 4,400 2,500 Climbing FlightAware ADS-B
Wed 10:22:10 PM -23.8460 133.8200 339° North 223 257 3,900 -1,171 Descending FlightAware ADS-B
Wed 10:22:30 PM -23.8280 133.8130 340° North 209 241 3,600 -1,071 Descending FlightAware ADS-B
Wed 10:22:38 PM -23.8200 133.8110 347° North 199 229 3,400 -1,286 Descending FlightAware ADS-B
Wed 10:22:44 PM -23.8150 133.8100 350° North 194 223 3,300 -800 Descending FlightAware ADS-B
Wed 10:23:08 PM -23.7960 133.8160 16° North 177 204 3,000 -833 Descending FlightAware ADS-B
Wed 10:23:20 PM -23.7880 133.8240 42° Northeast 170 196 2,800 -900 Descending FlightAware ADS-B
Wed 10:23:28 PM -23.7850 133.8290 57° Northeast 166 191 2,700 -1,000 Descending FlightAware ADS-B
Wed 10:23:32 PM -23.7840 133.8330 75° East 162 186 2,600 -1,000 Descending FlightAware ADS-B
Wed 10:23:40 PM -23.7820 133.8380 66° East 162 186 2,500 -600 Descending FlightAware ADS-B
Wed 10:23:52 PM -23.7810 133.8480 84° East 159 183 2,400 -667 Descending FlightAware ADS-B
Wed 10:24:16 PM -23.7860 133.8660 107° East 154 177 2,100 -818 Descending FlightAware ADS-B
Wed 10:24:36 PM -23.7940 133.8800 122° Southeast 160 184 1,800 -900 Descending FlightAware ADS-B
Wed 10:24:56 PM -23.8010 133.8940 122° Southeast 160 184 1,500 -900 Descending FlightAware ADS-B
Wed 10:25:21 PM -23.8080 133.9070 120° Southeast 82 94 -3,600 Descending FlightAware ADS-B

Login

Don't have an account? Register now (free) for customized features, flight alerts, and more!